createdAt,value
2018-01-31T01:52:20.308Z,90.3
2018-01-31T01:52:20.791Z,87.9
2018-01-31T01:53:11.714Z,87.9
2018-01-31T01:54:12.375Z,87.9
2018-01-31T01:55:13.036Z,88.0
2018-01-31T01:56:13.696Z,87.8
2018-01-31T01:57:14.356Z,88.0
2018-01-31T01:58:15.015Z,87.7
2018-01-31T01:59:15.681Z,87.6
2018-01-31T02:00:16.334Z,87.9
2018-01-31T02:01:16.993Z,87.7
2018-01-31T02:02:17.653Z,87.7
2018-01-31T02:03:18.314Z,87.7
2018-01-31T02:04:18.973Z,87.3
2018-01-31T02:05:19.632Z,87.7
2018-01-31T02:06:20.293Z,87.5
2018-01-31T02:07:20.953Z,87.8
2018-01-31T02:08:21.613Z,88.0
2018-01-31T02:09:22.274Z,87.8
2018-01-31T02:10:22.934Z,87.7
2018-01-31T02:11:23.594Z,87.3
2018-01-31T02:12:24.255Z,87.8
2018-01-31T02:13:24.918Z,87.5
2018-01-31T02:14:25.580Z,87.6
2018-01-31T02:15:26.243Z,87.6
2018-01-31T02:16:26.904Z,87.7
2018-01-31T02:17:27.565Z,87.6
2018-01-31T02:18:28.225Z,87.6
2018-01-31T02:19:28.885Z,87.7
2018-01-31T02:20:29.546Z,87.8
2018-01-31T02:21:30.206Z,87.2
2018-01-31T02:22:30.866Z,87.0
2018-01-31T02:23:31.527Z,87.1
2018-01-31T02:24:32.188Z,87.0
2018-01-31T02:25:32.848Z,87.3
2018-01-31T02:26:33.508Z,87.2
2018-01-31T02:27:34.169Z,87.0
2018-01-31T02:28:34.831Z,87.2
2018-01-31T02:29:35.533Z,87.2
2018-01-31T02:30:36.194Z,87.2
2018-01-31T02:31:36.855Z,87.2
2018-01-31T02:32:37.516Z,87.3
2018-01-31T02:33:38.189Z,87.4
2018-01-31T02:34:38.837Z,87.5
2018-01-31T02:35:39.497Z,87.4
2018-01-31T02:36:40.158Z,87.4
2018-01-31T02:38:56.304Z,87.1
2018-01-31T02:39:56.964Z,87.3
2018-01-31T02:40:57.624Z,87.4
2018-01-31T02:41:58.285Z,86.8
2018-01-31T02:42:58.947Z,86.8
2018-01-31T02:43:59.608Z,87.2
2018-01-31T02:45:00.272Z,87.0
2018-01-31T02:46:00.932Z,86.9
2018-01-31T02:47:01.594Z,86.8
2018-01-31T02:48:02.291Z,86.9
2018-01-31T02:49:02.952Z,86.9
2018-01-31T02:50:03.613Z,86.6
2018-01-31T02:51:04.275Z,86.8
2018-01-31T02:52:04.934Z,86.8
2018-01-31T02:53:05.594Z,86.5
2018-01-31T02:54:06.254Z,86.5
2018-01-31T02:55:06.914Z,86.8
2018-01-31T02:56:07.574Z,86.5
2018-01-31T02:57:08.234Z,86.8
2018-01-31T02:58:08.895Z,87.1
2018-01-31T02:59:09.556Z,86.4
2018-01-31T03:00:10.217Z,86.5
2018-01-31T03:01:10.877Z,86.7
2018-01-31T03:02:11.538Z,86.6
2018-01-31T03:03:12.199Z,86.5
2018-01-31T03:04:12.859Z,86.4
2018-01-31T03:05:13.520Z,87.0
2018-01-31T03:06:14.218Z,86.6
2018-01-31T03:07:14.877Z,86.6
2018-01-31T03:08:15.538Z,86.4
2018-01-31T03:09:16.198Z,86.7
2018-01-31T03:10:16.859Z,86.8
2018-01-31T03:11:17.519Z,86.7
2018-01-31T03:12:18.180Z,86.8
2018-01-31T03:13:18.841Z,87.1
2018-01-31T03:14:19.501Z,86.9
2018-01-31T03:15:20.164Z,87.0
2018-01-31T03:16:20.828Z,86.7
2018-01-31T03:17:21.490Z,87.1
2018-01-31T03:18:22.157Z,87.0
2018-01-31T03:19:22.815Z,86.5
2018-01-31T03:20:23.473Z,86.5
2018-01-31T03:21:24.136Z,86.9
2018-01-31T03:22:24.833Z,87.2
2018-01-31T03:23:25.494Z,87.4
2018-01-31T03:24:26.155Z,87.3
2018-01-31T03:25:26.816Z,87.5
2018-01-31T03:26:27.476Z,87.4
2018-01-31T03:27:28.137Z,87.4
2018-01-31T03:28:28.797Z,87.2
2018-01-31T03:29:29.457Z,87.2
2018-01-31T03:30:30.124Z,87.3
2018-01-31T03:31:30.790Z,87.0
2018-01-31T03:32:31.440Z,87.7
2018-01-31T03:33:32.102Z,87.6
2018-01-31T03:34:32.764Z,87.9
2018-01-31T03:35:33.425Z,88.3
2018-01-31T03:36:34.086Z,87.9
2018-01-31T03:37:34.748Z,88.5
2018-01-31T03:38:35.446Z,88.7
2018-01-31T03:40:51.597Z,88.8
2018-01-31T03:41:52.259Z,88.8
2018-01-31T03:42:52.919Z,89.2
2018-01-31T03:43:53.580Z,89.3
2018-01-31T03:44:54.241Z,89.3
2018-01-31T03:45:54.901Z,89.7
2018-01-31T03:46:55.561Z,89.7
2018-01-31T03:47:56.222Z,89.7
2018-01-31T03:48:56.884Z,89.7
2018-01-31T03:49:57.545Z,89.5
2018-01-31T03:50:58.207Z,89.1
2018-01-31T03:51:58.868Z,89.6
2018-01-31T03:52:59.529Z,89.6
2018-01-31T03:54:00.190Z,89.6
2018-01-31T03:55:00.851Z,89.4
2018-01-31T03:56:01.513Z,89.1
2018-01-31T03:57:02.174Z,89.4
2018-01-31T03:58:02.834Z,89.6
2018-01-31T03:59:03.532Z,89.6
2018-01-31T04:00:04.196Z,89.9
2018-01-31T04:01:04.892Z,89.7
2018-01-31T04:02:05.552Z,89.7
2018-01-31T04:03:06.213Z,89.9
2018-01-31T04:04:06.874Z,89.5
2018-01-31T04:05:07.536Z,89.4
2018-01-31T04:06:08.194Z,89.4
2018-01-31T04:07:08.854Z,89.5
2018-01-31T04:08:09.515Z,89.4
2018-01-31T04:09:10.176Z,89.6
2018-01-31T04:10:10.837Z,89.3
2018-01-31T04:11:11.544Z,89.5
2018-01-31T04:12:12.158Z,89.6
2018-01-31T04:13:12.819Z,89.2
2018-01-31T04:14:13.479Z,89.2
2018-01-31T04:15:14.140Z,89.1
2018-01-31T04:16:14.800Z,89.2
2018-01-31T04:17:15.460Z,88.6
2018-01-31T04:18:16.121Z,89.3
2018-01-31T04:19:16.781Z,89.7
2018-01-31T04:20:17.444Z,89.3
2018-01-31T04:21:18.101Z,89.6
2018-01-31T04:22:18.764Z,89.8
2018-01-31T04:23:19.428Z,89.6
2018-01-31T04:24:20.089Z,89.6
2018-01-31T04:25:20.751Z,89.7
2018-01-31T04:26:21.413Z,89.3
2018-01-31T04:27:22.075Z,89.5
2018-01-31T04:28:22.736Z,89.5
2018-01-31T04:29:23.396Z,89.7
2018-01-31T04:30:24.057Z,89.2
2018-01-31T04:31:24.767Z,89.0
2018-01-31T04:32:25.430Z,89.2
2018-01-31T04:33:26.092Z,89.1
2018-01-31T04:34:26.757Z,89.0
2018-01-31T04:35:27.415Z,88.6
2018-01-31T04:36:28.075Z,89.0
2018-01-31T04:37:28.736Z,88.9
2018-01-31T04:38:29.397Z,88.9
2018-01-31T04:39:30.062Z,88.9
2018-01-31T04:40:30.717Z,88.6
2018-01-31T04:41:31.379Z,88.5
2018-01-31T04:42:32.043Z,88.6
2018-01-31T04:43:32.700Z,88.5
2018-01-31T04:44:33.361Z,88.6
2018-01-31T04:45:34.021Z,88.7
2018-01-31T04:46:34.686Z,88.5
2018-01-31T04:47:35.348Z,88.5
2018-01-31T04:48:36.004Z,88.4
2018-01-31T04:49:36.667Z,88.7
2018-01-31T04:50:37.331Z,88.9
2018-01-31T04:51:37.993Z,89.0
2018-01-31T04:52:38.655Z,89.1
2018-01-31T04:53:39.315Z,89.1
2018-01-31T04:54:39.974Z,89.1
2018-01-31T04:55:40.637Z,88.8
2018-01-31T04:56:41.337Z,89.2
2018-01-31T04:57:41.997Z,89.3
2018-01-31T04:58:42.657Z,89.6
2018-01-31T04:59:43.318Z,89.2
2018-01-31T05:00:43.980Z,89.3
2018-01-31T05:01:44.640Z,89.4
2018-01-31T05:02:45.301Z,89.6
2018-01-31T05:03:45.962Z,89.5
2018-01-31T05:04:46.625Z,90.0
2018-01-31T05:05:47.287Z,90.3
2018-01-31T05:06:47.948Z,90.2
2018-01-31T05:07:48.609Z,90.0
2018-01-31T05:08:49.271Z,90.0
2018-01-31T05:09:49.934Z,90.5
2018-01-31T05:10:50.630Z,91.0
2018-01-31T05:11:51.290Z,90.9
2018-01-31T05:12:51.989Z,90.7
2018-01-31T05:13:52.651Z,90.5
2018-01-31T05:14:53.312Z,90.6
2018-01-31T05:15:53.974Z,90.6
2018-01-31T05:16:54.634Z,90.3
2018-01-31T05:17:55.294Z,91.0
2018-01-31T05:18:55.955Z,91.1
2018-01-31T05:19:56.616Z,90.9
2018-01-31T05:20:57.282Z,90.9
2018-01-31T05:21:57.936Z,90.5
2018-01-31T05:22:58.596Z,90.9
2018-01-31T05:23:59.256Z,91.2
2018-01-31T05:24:59.915Z,91.3
2018-01-31T05:26:00.576Z,91.2
2018-01-31T05:27:01.237Z,91.6
2018-01-31T05:28:01.898Z,91.6
2018-01-31T05:29:02.557Z,91.5
2018-01-31T05:30:03.257Z,91.1
2018-01-31T05:31:03.917Z,91.4
2018-01-31T05:32:04.577Z,91.5
2018-01-31T05:33:05.240Z,91.7
2018-01-31T05:34:05.897Z,91.5
2018-01-31T05:35:06.558Z,91.7
2018-01-31T05:36:07.217Z,91.5
2018-01-31T05:37:07.877Z,91.8
2018-01-31T05:38:08.537Z,92.2
2018-01-31T05:39:09.197Z,92.0
2018-01-31T05:40:09.857Z,91.9
2018-01-31T05:41:10.517Z,91.6
2018-01-31T05:42:11.176Z,92.2
2018-01-31T05:43:11.836Z,92.6
2018-01-31T05:44:12.497Z,92.3
2018-01-31T05:45:13.157Z,92.6
2018-01-31T05:46:13.817Z,92.4
2018-01-31T05:47:14.528Z,92.6
2018-01-31T05:48:15.190Z,92.6
2018-01-31T05:49:15.852Z,92.4
2018-01-31T05:50:16.514Z,93.1
2018-01-31T05:51:17.174Z,93.1
2018-01-31T05:52:17.835Z,92.8
2018-01-31T05:53:18.496Z,93.0
2018-01-31T05:54:19.200Z,92.8
2018-01-31T05:55:19.856Z,92.7
2018-01-31T05:56:20.517Z,92.6
2018-01-31T05:57:21.177Z,93.0
2018-01-31T05:58:21.838Z,93.2
2018-01-31T05:59:22.499Z,93.6
2018-01-31T06:00:23.162Z,93.4
2018-01-31T06:01:23.822Z,93.4
2018-01-31T06:02:24.521Z,93.7
2018-01-31T06:03:25.181Z,93.8
2018-01-31T06:04:25.843Z,93.7
2018-01-31T06:05:26.506Z,93.9
2018-01-31T06:06:27.166Z,93.8
2018-01-31T06:07:27.828Z,94.3
2018-01-31T06:08:28.489Z,94.7
2018-01-31T06:09:29.152Z,94.7
2018-01-31T06:10:29.812Z,95.5
2018-01-31T06:11:30.472Z,95.0
2018-01-31T06:12:31.131Z,95.0
2018-01-31T06:13:31.793Z,95.3
2018-01-31T06:14:32.453Z,94.9
2018-01-31T06:15:33.152Z,95.2
2018-01-31T06:16:33.813Z,94.8
2018-01-31T06:17:34.472Z,94.7
2018-01-31T06:18:35.133Z,94.7
2018-01-31T06:19:35.794Z,94.9
2018-01-31T06:20:36.454Z,94.8
2018-01-31T06:21:37.116Z,94.2
2018-01-31T06:22:38.026Z,94.5
2018-01-31T06:23:38.687Z,94.5
2018-01-31T06:24:39.348Z,94.5
2018-01-31T06:25:40.047Z,94.4
2018-01-31T06:26:40.707Z,94.3
2018-01-31T06:27:41.367Z,93.8
2018-01-31T06:28:42.028Z,93.7
2018-01-31T06:29:42.688Z,93.8
2018-01-31T06:30:43.348Z,93.9
2018-01-31T06:31:44.009Z,92.9
2018-01-31T06:32:44.669Z,92.9
2018-01-31T06:33:45.330Z,93.2
2018-01-31T06:34:45.992Z,93.1
2018-01-31T06:35:46.653Z,93.2
2018-01-31T06:36:47.315Z,93.1
2018-01-31T06:37:47.976Z,93.2
2018-01-31T06:38:48.636Z,93.6
2018-01-31T06:39:49.299Z,93.9
2018-01-31T06:40:49.962Z,93.6
2018-01-31T06:41:50.626Z,93.6
2018-01-31T06:42:51.302Z,93.7
2018-01-31T06:43:51.953Z,94.5
2018-01-31T06:44:52.614Z,94.6
2018-01-31T06:45:53.316Z,94.4
2018-01-31T06:46:53.978Z,94.7
2018-01-31T06:47:54.641Z,94.9
2018-01-31T06:48:55.305Z,94.2
2018-01-31T06:49:55.967Z,93.7
2018-01-31T06:50:56.630Z,94.4
2018-01-31T06:51:57.293Z,94.3
2018-01-31T06:52:57.955Z,93.9
2018-01-31T06:53:58.619Z,93.5
2018-01-31T06:54:59.318Z,93.7
2018-01-31T06:55:59.980Z,94.0
2018-01-31T06:57:00.642Z,93.5
2018-01-31T06:58:01.306Z,93.0
2018-01-31T06:59:01.969Z,93.0
2018-01-31T07:00:02.700Z,92.7
2018-01-31T07:01:03.329Z,93.0
2018-01-31T07:02:03.993Z,92.4
2018-01-31T07:03:04.659Z,92.0
2018-01-31T07:04:05.323Z,92.2
2018-01-31T07:05:05.989Z,92.4
2018-01-31T07:06:06.652Z,91.2
2018-01-31T07:07:07.315Z,91.4
2018-01-31T07:08:07.980Z,91.2
2018-01-31T07:09:08.643Z,91.2
2018-01-31T07:10:09.307Z,90.9
2018-01-31T07:11:09.972Z,90.5
2018-01-31T07:12:10.636Z,90.9
2018-01-31T07:13:11.302Z,90.8
2018-01-31T07:14:11.968Z,90.2
2018-01-31T07:15:12.636Z,90.9
2018-01-31T07:16:13.299Z,90.8
2018-01-31T07:17:13.964Z,90.9
2018-01-31T07:18:14.633Z,90.2
2018-01-31T07:19:15.334Z,90.1
2018-01-31T07:20:16.000Z,90.4
2018-01-31T07:21:16.702Z,89.9
2018-01-31T07:22:17.366Z,90.2
2018-01-31T07:23:18.031Z,89.9
2018-01-31T07:24:18.697Z,89.8
2018-01-31T07:25:19.364Z,90.0
2018-01-31T07:26:20.029Z,89.7
2018-01-31T07:27:20.693Z,89.5
2018-01-31T07:28:21.359Z,89.8
2018-01-31T07:29:22.025Z,89.8
2018-01-31T07:30:22.689Z,89.1
2018-01-31T07:31:23.354Z,88.7
2018-01-31T07:32:24.020Z,89.0
2018-01-31T07:33:24.684Z,89.6
2018-01-31T07:34:25.351Z,89.2
2018-01-31T07:35:26.017Z,89.8
2018-01-31T07:36:26.681Z,89.7
2018-01-31T07:37:27.347Z,89.5
2018-01-31T07:38:28.013Z,89.2
2018-01-31T07:39:28.678Z,89.4
2018-01-31T07:40:29.343Z,89.4
2018-01-31T07:41:30.012Z,89.2
2018-01-31T07:42:30.713Z,89.4
2018-01-31T07:43:31.383Z,89.8
2018-01-31T07:44:32.047Z,89.3
2018-01-31T07:45:32.713Z,89.0
2018-01-31T07:46:33.378Z,89.4
2018-01-31T07:47:34.044Z,89.0
2018-01-31T07:48:34.710Z,89.4
2018-01-31T07:49:35.376Z,89.8
2018-01-31T07:50:36.042Z,89.8
2018-01-31T07:51:36.709Z,89.4
2018-01-31T07:52:37.377Z,89.4
2018-01-31T07:53:38.043Z,89.4
2018-01-31T07:54:38.710Z,89.8
2018-01-31T07:55:39.377Z,89.7
2018-01-31T07:56:40.044Z,89.8
2018-01-31T07:57:40.713Z,89.7
2018-01-31T07:58:41.377Z,89.9
2018-01-31T07:59:42.045Z,89.5
2018-01-31T08:00:42.711Z,89.5
2018-01-31T08:01:43.377Z,89.7
2018-01-31T08:02:44.044Z,89.6
2018-01-31T08:03:44.710Z,89.9
2018-01-31T08:04:45.377Z,89.5
2018-01-31T08:05:46.046Z,89.8
2018-01-31T08:06:46.711Z,90.1
2018-01-31T08:07:47.377Z,90.4
2018-01-31T08:08:48.042Z,90.2
2018-01-31T08:09:48.709Z,91.0
2018-01-31T08:10:49.378Z,90.8
2018-01-31T08:11:50.042Z,90.7
2018-01-31T08:12:50.708Z,90.4
2018-01-31T08:13:51.375Z,90.6
2018-01-31T08:14:52.044Z,90.8
2018-01-31T08:15:52.710Z,91.0
2018-01-31T08:16:53.377Z,90.8
2018-01-31T08:17:54.045Z,91.2
2018-01-31T08:18:54.711Z,91.0
2018-01-31T08:19:55.414Z,91.4
2018-01-31T08:20:56.046Z,91.7
2018-01-31T08:21:56.714Z,92.2
2018-01-31T08:22:57.383Z,92.2
2018-01-31T08:23:58.051Z,92.6
2018-01-31T08:24:58.716Z,93.1
2018-01-31T08:25:59.421Z,92.9
2018-01-31T08:27:00.086Z,93.0
2018-01-31T08:28:00.753Z,92.4
2018-01-31T08:29:01.421Z,93.2
2018-01-31T08:30:02.089Z,93.8
2018-01-31T08:31:02.755Z,94.3
2018-01-31T08:32:03.422Z,94.2
2018-01-31T08:33:04.088Z,94.9
2018-01-31T08:34:04.756Z,94.4
2018-01-31T08:35:05.427Z,94.5
2018-01-31T08:36:06.092Z,94.4
2018-01-31T08:37:06.759Z,94.7
2018-01-31T08:38:07.426Z,94.4
2018-01-31T08:39:08.129Z,93.8
2018-01-31T08:40:08.797Z,93.9
2018-01-31T08:41:09.465Z,93.3
2018-01-31T08:42:10.169Z,93.5
2018-01-31T08:43:10.835Z,93.2
2018-01-31T08:44:11.503Z,92.0
2018-01-31T08:45:12.172Z,93.1
2018-01-31T08:46:12.877Z,92.4
2018-01-31T08:47:13.544Z,91.8
2018-01-31T08:48:14.211Z,91.7
2018-01-31T08:49:14.878Z,91.0
2018-01-31T08:50:15.546Z,91.2
2018-01-31T08:51:16.213Z,90.7
2018-01-31T08:52:16.880Z,90.7
2018-01-31T08:53:17.547Z,90.7
2018-01-31T08:54:18.212Z,90.7
2018-01-31T08:55:18.882Z,90.7
2018-01-31T08:56:19.547Z,90.6
2018-01-31T08:57:20.214Z,90.2
2018-01-31T08:58:20.881Z,89.8
2018-01-31T08:59:21.548Z,89.8
2018-01-31T09:00:22.218Z,89.6
2018-01-31T09:01:22.884Z,89.8
2018-01-31T09:02:23.553Z,89.2
2018-01-31T09:03:24.233Z,89.1
2018-01-31T09:04:24.889Z,88.6
2018-01-31T09:05:25.557Z,88.8
2018-01-31T09:06:26.227Z,87.7
2018-01-31T09:07:26.895Z,88.2
2018-01-31T09:08:27.566Z,88.1
2018-01-31T09:09:28.231Z,87.6
2018-01-31T09:10:28.935Z,88.0
2018-01-31T09:11:29.602Z,87.7
2018-01-31T09:12:30.269Z,88.1
2018-01-31T09:13:30.974Z,88.4
2018-01-31T09:14:31.645Z,89.2
2018-01-31T09:15:32.314Z,88.6
2018-01-31T09:16:32.988Z,88.3
2018-01-31T09:17:33.650Z,87.9
2018-01-31T09:18:34.320Z,88.4
2018-01-31T09:19:34.987Z,87.8
2018-01-31T09:20:35.656Z,87.6
2018-01-31T09:21:36.325Z,88.0
2018-01-31T09:22:36.996Z,87.7
2018-01-31T09:23:37.662Z,88.1
2018-01-31T09:24:38.330Z,87.9
2018-01-31T09:25:38.997Z,87.8
2018-01-31T09:26:39.668Z,87.8
2018-01-31T09:27:40.337Z,87.3
2018-01-31T09:28:41.006Z,88.2
2018-01-31T09:29:41.674Z,87.4
2018-01-31T09:30:42.343Z,87.7
2018-01-31T09:31:43.010Z,87.7
2018-01-31T09:32:43.678Z,87.5
2018-01-31T09:33:44.350Z,87.5
2018-01-31T09:34:45.025Z,87.3
2018-01-31T09:35:45.688Z,87.0
2018-01-31T09:36:46.356Z,87.6
2018-01-31T09:37:47.024Z,87.4
2018-01-31T09:38:47.693Z,87.7
2018-01-31T09:39:48.363Z,87.7
2018-01-31T09:40:49.034Z,87.6
2018-01-31T09:41:49.704Z,86.6
2018-01-31T09:42:50.374Z,87.6
2018-01-31T09:43:51.046Z,87.5
2018-01-31T09:44:51.714Z,87.4
2018-01-31T09:45:52.384Z,87.2
2018-01-31T09:46:53.054Z,87.4
2018-01-31T09:47:53.724Z,87.6
2018-01-31T09:48:54.391Z,87.0
2018-01-31T09:49:55.112Z,86.8
2018-01-31T09:50:55.734Z,86.8
2018-01-31T09:51:56.403Z,87.4
2018-01-31T09:52:57.074Z,86.8
2018-01-31T09:53:57.744Z,87.2
2018-01-31T09:54:58.413Z,86.7
2018-01-31T09:55:59.085Z,87.5
2018-01-31T09:56:59.793Z,87.0
2018-01-31T09:58:00.464Z,87.7
2018-01-31T09:59:01.134Z,87.3
2018-01-31T10:00:01.803Z,86.8
2018-01-31T10:01:02.476Z,87.3
2018-01-31T10:02:03.143Z,87.0
2018-01-31T10:03:03.812Z,87.8
2018-01-31T10:04:04.482Z,87.7
2018-01-31T10:05:05.152Z,87.7
2018-01-31T10:06:05.827Z,87.2
2018-01-31T10:07:06.492Z,87.7
2018-01-31T10:08:07.161Z,87.4
2018-01-31T10:09:07.829Z,87.4
2018-01-31T10:10:08.499Z,87.3
2018-01-31T10:11:09.170Z,87.1
2018-01-31T10:12:09.836Z,86.7
2018-01-31T10:13:10.507Z,87.0
2018-01-31T10:14:11.178Z,87.3
2018-01-31T10:15:11.846Z,87.0
2018-01-31T10:16:12.516Z,86.6
2018-01-31T10:17:13.186Z,86.7
2018-01-31T10:18:13.855Z,86.8
2018-01-31T10:19:14.526Z,86.9
2018-01-31T10:20:15.197Z,86.5
2018-01-31T10:21:15.867Z,86.9
2018-01-31T10:22:16.537Z,86.6
2018-01-31T10:23:17.207Z,87.2
2018-01-31T10:24:17.878Z,86.9
2018-01-31T10:25:18.548Z,87.0
2018-01-31T10:26:19.220Z,86.9
2018-01-31T10:27:19.890Z,87.1
2018-01-31T10:28:20.560Z,86.8
2018-01-31T10:29:21.232Z,87.1
2018-01-31T10:30:21.904Z,87.0
2018-01-31T10:31:22.574Z,87.0
2018-01-31T10:32:23.244Z,87.2
2018-01-31T10:33:23.913Z,86.5
2018-01-31T10:34:24.629Z,86.8
2018-01-31T10:35:25.256Z,86.4
2018-01-31T10:36:25.926Z,86.0
2018-01-31T10:37:26.598Z,86.2
2018-01-31T10:38:27.265Z,85.9
2018-01-31T10:39:27.934Z,85.5
2018-01-31T10:40:28.606Z,86.1
2018-01-31T10:41:29.275Z,85.9
2018-01-31T10:42:29.996Z,85.5
2018-01-31T10:43:30.615Z,85.4
2018-01-31T10:44:31.285Z,85.1
2018-01-31T10:45:31.957Z,85.4
2018-01-31T10:46:32.627Z,84.9
2018-01-31T10:47:33.298Z,84.3
2018-01-31T10:48:33.968Z,84.3
2018-01-31T10:49:34.638Z,84.4
2018-01-31T10:50:35.310Z,84.1
2018-01-31T10:51:35.981Z,84.2
2018-01-31T10:52:36.653Z,84.5
2018-01-31T10:57:42.977Z,84.1
2018-01-31T10:58:43.690Z,84.3
2018-01-31T10:59:44.357Z,84.4
2018-01-31T11:00:45.028Z,84.1
2018-01-31T11:01:45.698Z,84.1
2018-01-31T11:02:46.369Z,84.3
2018-01-31T11:03:47.041Z,84.1
2018-01-31T11:04:47.713Z,84.1
2018-01-31T11:05:48.384Z,83.9
2018-01-31T11:06:49.055Z,84.0
2018-01-31T11:07:49.727Z,84.2
2018-01-31T11:08:50.400Z,84.3
2018-01-31T11:09:51.111Z,83.9
2018-01-31T11:10:51.781Z,84.8
2018-01-31T11:11:52.452Z,84.3
2018-01-31T11:12:53.121Z,84.6
2018-01-31T11:13:53.792Z,84.6
2018-01-31T11:14:54.519Z,84.3
2018-01-31T11:15:55.136Z,84.1
2018-01-31T11:16:55.808Z,83.9
2018-01-31T11:17:56.479Z,83.6
2018-01-31T11:18:57.187Z,83.5
2018-01-31T11:19:57.859Z,83.3
2018-01-31T11:20:58.533Z,83.9
2018-01-31T11:21:59.202Z,83.4
2018-01-31T11:22:59.873Z,83.6
2018-01-31T11:24:00.581Z,83.0
2018-01-31T11:25:01.252Z,82.8
2018-01-31T11:26:01.923Z,83.0
2018-01-31T11:27:02.596Z,83.1
2018-01-31T11:28:03.265Z,83.0
2018-01-31T11:29:03.936Z,82.8
2018-01-31T11:30:04.608Z,83.2
2018-01-31T11:31:05.278Z,82.9
2018-01-31T11:32:05.950Z,82.8
2018-01-31T11:33:06.621Z,82.7
2018-01-31T11:34:07.331Z,83.0
2018-01-31T11:35:08.003Z,82.4
2018-01-31T11:36:08.673Z,82.2
2018-01-31T11:37:09.346Z,82.7
2018-01-31T11:38:10.015Z,82.5
2018-01-31T11:39:10.685Z,82.5
2018-01-31T11:40:11.359Z,83.3
2018-01-31T11:41:12.065Z,82.8
2018-01-31T11:42:12.734Z,82.9
2018-01-31T11:43:13.402Z,83.2
2018-01-31T11:44:14.074Z,83.2
2018-01-31T11:45:14.745Z,83.1
2018-01-31T11:46:15.413Z,83.1
2018-01-31T11:47:16.084Z,83.2
2018-01-31T11:48:16.752Z,83.6
2018-01-31T11:49:17.422Z,83.8
2018-01-31T11:50:18.092Z,83.5
2018-01-31T11:51:18.805Z,83.5
2018-01-31T11:52:19.440Z,84.4
2018-01-31T11:53:20.105Z,83.9
2018-01-31T11:54:20.775Z,83.3
2018-01-31T11:55:21.445Z,83.4
2018-01-31T11:56:22.117Z,83.3
2018-01-31T11:57:22.789Z,84.0
2018-01-31T11:58:23.460Z,83.4
2018-01-31T11:59:24.133Z,83.4
2018-01-31T12:00:24.800Z,83.1
2018-01-31T12:01:25.472Z,84.0
2018-01-31T12:02:26.143Z,84.5
2018-01-31T12:03:26.813Z,84.2
2018-01-31T12:04:27.485Z,84.0
2018-01-31T12:05:28.155Z,84.9
2018-01-31T12:06:28.826Z,84.8
2018-01-31T12:07:29.503Z,85.1
2018-01-31T12:08:30.207Z,85.5
2018-01-31T12:09:30.879Z,86.1
2018-01-31T12:10:31.549Z,86.0
2018-01-31T12:11:32.221Z,85.8
2018-01-31T12:12:32.890Z,86.4
2018-01-31T12:13:33.600Z,86.1
2018-01-31T12:14:34.271Z,86.1
2018-01-31T12:15:34.943Z,85.7
2018-01-31T12:16:35.613Z,85.2
2018-01-31T12:17:36.284Z,85.3
2018-01-31T12:18:36.995Z,85.0
2018-01-31T12:19:37.666Z,85.4
2018-01-31T12:20:38.342Z,84.8
2018-01-31T12:21:39.008Z,85.2
2018-01-31T12:22:39.679Z,84.4
2018-01-31T12:23:40.350Z,84.2
2018-01-31T12:24:41.021Z,84.2
2018-01-31T12:25:41.692Z,83.9
2018-01-31T12:26:42.365Z,84.4
2018-01-31T12:27:43.039Z,84.1
2018-01-31T12:28:43.743Z,83.5
2018-01-31T12:29:44.413Z,83.4
2018-01-31T12:30:45.086Z,83.5
2018-01-31T12:31:45.757Z,83.3
2018-01-31T12:32:46.429Z,82.6
2018-01-31T12:33:47.101Z,82.6
2018-01-31T12:34:47.771Z,82.7
2018-01-31T12:35:48.443Z,82.5
2018-01-31T12:36:49.115Z,82.9
2018-01-31T12:37:49.787Z,82.9
2018-01-31T12:38:50.459Z,82.2
2018-01-31T12:39:51.129Z,82.0
2018-01-31T12:40:51.806Z,82.4
2018-01-31T12:41:52.473Z,82.6
2018-01-31T12:42:53.146Z,81.8
2018-01-31T12:43:53.818Z,81.8
2018-01-31T12:44:54.487Z,81.5
2018-01-31T12:45:55.196Z,82.1
2018-01-31T12:46:55.831Z,81.7
2018-01-31T12:47:56.541Z,82.0
2018-01-31T12:48:57.211Z,81.9
2018-01-31T12:49:57.882Z,81.3
2018-01-31T12:50:58.553Z,80.8
2018-01-31T12:51:59.226Z,80.9
2018-01-31T12:52:59.900Z,80.8
2018-01-31T12:54:00.572Z,81.1
2018-01-31T12:55:01.242Z,81.0
2018-01-31T12:56:01.914Z,81.3
2018-01-31T12:57:02.622Z,81.3
2018-01-31T12:58:03.293Z,81.2
2018-01-31T12:59:03.964Z,81.3
2018-01-31T13:00:04.634Z,81.6
2018-01-31T13:01:05.305Z,82.0
2018-01-31T13:02:05.973Z,81.7
2018-01-31T13:03:06.644Z,82.0
2018-01-31T13:04:07.314Z,82.6
2018-01-31T13:05:07.986Z,82.5
2018-01-31T13:06:08.661Z,82.7
2018-01-31T13:07:09.326Z,82.6
2018-01-31T13:08:09.996Z,82.6
2018-01-31T13:09:10.702Z,82.9
2018-01-31T13:10:11.338Z,82.7
2018-01-31T13:11:12.007Z,82.7
2018-01-31T13:12:12.678Z,82.9
2018-01-31T13:13:13.349Z,82.7
2018-01-31T13:14:14.018Z,82.4
2018-01-31T13:15:14.687Z,82.6
2018-01-31T13:16:15.360Z,83.1
2018-01-31T13:17:16.032Z,82.6
2018-01-31T13:18:16.703Z,83.0
2018-01-31T13:19:17.374Z,82.8
2018-01-31T13:20:18.044Z,82.9
2018-01-31T13:21:18.715Z,82.8
2018-01-31T13:22:19.638Z,83.0
2018-01-31T13:23:20.310Z,83.0
2018-01-31T13:24:21.025Z,82.8
2018-01-31T13:25:21.693Z,82.6
2018-01-31T13:26:22.364Z,83.2
2018-01-31T13:27:23.036Z,83.0
2018-01-31T13:28:23.706Z,83.3
2018-01-31T13:29:24.377Z,83.0
2018-01-31T13:30:25.046Z,83.6
2018-01-31T13:31:25.717Z,83.7
2018-01-31T13:32:26.387Z,83.3
2018-01-31T13:33:27.059Z,83.9
2018-01-31T13:34:27.727Z,84.3
2018-01-31T13:35:28.398Z,84.1
2018-01-31T13:36:29.069Z,84.3
2018-01-31T13:37:29.737Z,84.8
2018-01-31T13:38:30.447Z,84.8
2018-01-31T13:39:31.120Z,85.3
2018-01-31T13:40:31.788Z,84.8
2018-01-31T13:41:32.459Z,84.8
2018-01-31T13:42:33.130Z,85.3
2018-01-31T13:43:33.799Z,85.4
2018-01-31T13:44:34.469Z,85.1
2018-01-31T13:45:35.138Z,85.4
2018-01-31T13:46:35.808Z,85.2
2018-01-31T13:47:36.477Z,85.0
2018-01-31T13:48:37.148Z,84.9
2018-01-31T13:49:37.818Z,85.3
2018-01-31T13:50:38.487Z,85.4
2018-01-31T13:51:39.158Z,85.3
2018-01-31T13:52:39.827Z,85.3
2018-01-31T13:53:40.497Z,84.9
2018-01-31T13:54:41.167Z,85.1
2018-01-31T13:55:41.836Z,85.6
2018-01-31T13:56:42.505Z,85.2
2018-01-31T13:57:43.175Z,84.8
2018-01-31T13:58:43.848Z,84.9
2018-01-31T13:59:44.513Z,85.3
2018-01-31T14:00:45.184Z,84.8
2018-01-31T14:01:45.853Z,84.7
2018-01-31T14:02:46.522Z,84.1
2018-01-31T14:03:47.193Z,83.6
2018-01-31T14:04:47.862Z,83.9
2018-01-31T14:05:48.532Z,83.5
2018-01-31T14:06:49.201Z,83.6
2018-01-31T14:07:49.870Z,83.7
2018-01-31T14:08:50.538Z,83.6
2018-01-31T14:09:51.208Z,84.2
2018-01-31T14:10:51.918Z,83.7
2018-01-31T14:11:52.622Z,83.6
2018-01-31T14:12:53.290Z,83.4
2018-01-31T14:13:53.958Z,83.4
2018-01-31T14:14:54.626Z,83.7
2018-01-31T14:15:55.294Z,83.6
2018-01-31T14:16:55.962Z,84.2
2018-01-31T14:17:56.631Z,84.5
2018-01-31T14:18:57.301Z,84.2
2018-01-31T14:19:57.969Z,83.9
2018-01-31T14:20:58.678Z,83.9
2018-01-31T14:21:59.381Z,84.2
2018-01-31T14:23:00.049Z,84.4
2018-01-31T14:24:00.718Z,84.3
2018-01-31T14:25:01.386Z,84.7
2018-01-31T14:26:02.052Z,84.8
2018-01-31T14:27:02.757Z,85.5
2018-01-31T14:28:03.426Z,85.2
2018-01-31T14:29:04.096Z,85.1
2018-01-31T14:30:04.766Z,85.2
2018-01-31T14:31:05.434Z,85.4
2018-01-31T14:32:06.102Z,85.8
2018-01-31T14:33:06.768Z,85.6
2018-01-31T14:34:07.437Z,85.4
2018-01-31T14:35:08.108Z,85.4
2018-01-31T14:36:08.778Z,85.0
2018-01-31T14:37:09.444Z,85.4
2018-01-31T14:38:10.115Z,85.5
2018-01-31T14:39:10.782Z,85.9
2018-01-31T14:40:11.486Z,86.1
2018-01-31T14:41:12.153Z,86.1
2018-01-31T14:42:12.838Z,85.9
2018-01-31T14:43:13.489Z,85.7
2018-01-31T14:44:14.159Z,85.5
2018-01-31T14:45:14.829Z,85.2
2018-01-31T14:46:15.534Z,86.2
2018-01-31T14:47:16.202Z,85.7
2018-01-31T14:48:16.870Z,85.5
2018-01-31T14:49:17.537Z,85.4
2018-01-31T14:50:18.203Z,85.4
2018-01-31T14:51:18.873Z,85.9
2018-01-31T14:52:19.542Z,85.6
2018-01-31T14:53:20.210Z,86.3
2018-01-31T14:54:20.878Z,85.7
2018-01-31T14:55:21.545Z,86.1
2018-01-31T14:56:22.214Z,85.9
2018-01-31T14:57:22.882Z,85.9
2018-01-31T14:58:23.551Z,86.0
2018-01-31T14:59:24.219Z,86.0
2018-01-31T15:00:24.886Z,85.9
2018-01-31T15:01:25.555Z,86.0
2018-01-31T15:02:26.223Z,86.3
2018-01-31T15:03:26.892Z,85.6
2018-01-31T15:04:27.558Z,85.3
2018-01-31T15:05:28.227Z,85.2
2018-01-31T15:06:28.896Z,85.2
2018-01-31T15:07:29.563Z,85.6
2018-01-31T15:08:30.281Z,85.4
2018-01-31T15:09:30.951Z,85.2
2018-01-31T15:10:31.620Z,85.4
2018-01-31T15:11:32.285Z,85.5
2018-01-31T15:12:32.957Z,85.4
2018-01-31T15:13:33.625Z,85.3
2018-01-31T15:14:34.293Z,85.5
2018-01-31T15:15:34.960Z,85.2
2018-01-31T15:16:35.665Z,85.2
2018-01-31T15:17:36.373Z,85.0
2018-01-31T15:18:37.000Z,85.2
2018-01-31T15:19:37.668Z,85.0
2018-01-31T15:20:38.335Z,85.2
2018-01-31T15:21:39.001Z,85.3
2018-01-31T15:22:39.667Z,85.1
2018-01-31T15:23:40.334Z,85.1
2018-01-31T15:24:41.050Z,85.1